sensor_id;sensor_type;location;lat;lon;timestamp;temperature;humidity
29777;DHT22;16677;52.224;7.484;2022-08-19T00:01:53;17.60;99.90
29777;DHT22;16677;52.224;7.484;2022-08-19T00:04:24;17.70;99.90
29777;DHT22;16677;52.224;7.484;2022-08-19T00:06:51;17.70;99.90
29777;DHT22;16677;52.224;7.484;2022-08-19T00:09:20;17.60;99.90
29777;DHT22;16677;52.224;7.484;2022-08-19T00:11:48;17.60;99.90
29777;DHT22;16677;52.224;7.484;2022-08-19T00:14:17;17.50;99.90
29777;DHT22;16677;52.224;7.484;2022-08-19T00:16:46;17.50;99.90
29777;DHT22;16677;52.224;7.484;2022-08-19T00:19:15;17.50;99.90
29777;DHT22;16677;52.224;7.484;2022-08-19T00:21:43;17.50;99.90
29777;DHT22;16677;52.224;7.484;2022-08-19T00:24:12;17.50;99.90
29777;DHT22;16677;52.224;7.484;2022-08-19T00:26:40;17.40;99.90
29777;DHT22;16677;52.224;7.484;2022-08-19T00:29:10;17.50;99.90
29777;DHT22;16677;52.224;7.484;2022-08-19T00:31:38;17.40;99.90
29777;DHT22;16677;52.224;7.484;2022-08-19T00:34:05;17.40;99.90
29777;DHT22;16677;52.224;7.484;2022-08-19T00:36:32;17.30;99.90
29777;DHT22;16677;52.224;7.484;2022-08-19T00:39:00;17.30;99.90
29777;DHT22;16677;52.224;7.484;2022-08-19T00:41:27;17.30;99.90
29777;DHT22;16677;52.224;7.484;2022-08-19T00:44:11;17.30;99.90
29777;DHT22;16677;52.224;7.484;2022-08-19T00:46:41;17.20;99.90
29777;DHT22;16677;52.224;7.484;2022-08-19T00:49:36;17.20;99.90
29777;DHT22;16677;52.224;7.484;2022-08-19T00:52:08;17.20;99.90
29777;DHT22;16677;52.224;7.484;2022-08-19T00:54:37;17.20;99.90
29777;DHT22;16677;52.224;7.484;2022-08-19T00:57:09;17.10;99.90
29777;DHT22;16677;52.224;7.484;2022-08-19T00:59:38;17.10;99.90
29777;DHT22;16677;52.224;7.484;2022-08-19T01:02:27;17.10;99.90
29777;DHT22;16677;52.224;7.484;2022-08-19T01:04:54;17.10;99.90
29777;DHT22;16677;52.224;7.484;2022-08-19T01:07:21;17.00;99.90
29777;DHT22;16677;52.224;7.484;2022-08-19T01:09:49;17.00;99.90
29777;DHT22;16677;52.224;7.484;2022-08-19T01:12:17;17.00;99.90
29777;DHT22;16677;52.224;7.484;2022-08-19T01:14:46;17.00;99.90
29777;DHT22;16677;52.224;7.484;2022-08-19T01:17:15;17.00;99.90
29777;DHT22;16677;52.224;7.484;2022-08-19T01:19:43;16.90;99.90
29777;DHT22;16677;52.224;7.484;2022-08-19T01:25:00;17.00;99.90
29777;DHT22;16677;52.224;7.484;2022-08-19T01:27:38;16.90;99.90
29777;DHT22;16677;52.224;7.484;2022-08-19T01:30:12;16.90;99.90
29777;DHT22;16677;52.224;7.484;2022-08-19T01:32:40;16.90;99.90
29777;DHT22;16677;52.224;7.484;2022-08-19T01:35:07;16.90;99.90
29777;DHT22;16677;52.224;7.484;2022-08-19T01:38:05;16.80;99.90
29777;DHT22;16677;52.224;7.484;2022-08-19T01:40:37;16.80;99.90
29777;DHT22;16677;52.224;7.484;2022-08-19T01:43:05;16.80;99.90
29777;DHT22;16677;52.224;7.484;2022-08-19T01:45:33;16.80;99.90
29777;DHT22;16677;52.224;7.484;2022-08-19T01:48:02;16.80;99.90
29777;DHT22;16677;52.224;7.484;2022-08-19T01:50:33;16.80;99.90
29777;DHT22;16677;52.224;7.484;2022-08-19T01:53:02;16.80;99.90
29777;DHT22;16677;52.224;7.484;2022-08-19T01:55:38;16.80;99.90
29777;DHT22;16677;52.224;7.484;2022-08-19T01:58:12;16.80;99.90
29777;DHT22;16677;52.224;7.484;2022-08-19T02:00:41;16.80;99.90
29777;DHT22;16677;52.224;7.484;2022-08-19T02:03:09;16.80;99.90
29777;DHT22;16677;52.224;7.484;2022-08-19T02:05:37;16.80;99.90
29777;DHT22;16677;52.224;7.484;2022-08-19T02:08:04;16.80;99.90
29777;DHT22;16677;52.224;7.484;2022-08-19T02:10:31;16.80;99.90
29777;DHT22;16677;52.224;7.484;2022-08-19T02:12:59;16.80;99.90
29777;DHT22;16677;52.224;7.484;2022-08-19T02:15:26;16.70;99.90
29777;DHT22;16677;52.224;7.484;2022-08-19T02:17:53;16.70;99.90
29777;DHT22;16677;52.224;7.484;2022-08-19T02:20:20;16.80;99.90
29777;DHT22;16677;52.224;7.484;2022-08-19T02:22:47;16.60;99.90
29777;DHT22;16677;52.224;7.484;2022-08-19T02:25:14;16.60;99.90
29777;DHT22;16677;52.224;7.484;2022-08-19T02:27:42;16.70;99.90
29777;DHT22;16677;52.224;7.484;2022-08-19T02:30:13;16.60;99.90
29777;DHT22;16677;52.224;7.484;2022-08-19T02:32:40;16.60;99.90
29777;DHT22;16677;52.224;7.484;2022-08-19T02:35:11;16.50;99.90
29777;DHT22;16677;52.224;7.484;2022-08-19T02:37:40;16.60;99.90
29777;DHT22;16677;52.224;7.484;2022-08-19T02:40:27;16.60;99.90
29777;DHT22;16677;52.224;7.484;2022-08-19T02:42:54;16.60;99.90
29777;DHT22;16677;52.224;7.484;2022-08-19T02:45:21;16.70;99.90
29777;DHT22;16677;52.224;7.484;2022-08-19T02:47:48;16.50;99.90
29777;DHT22;16677;52.224;7.484;2022-08-19T02:50:15;16.50;99.90
29777;DHT22;16677;52.224;7.484;2022-08-19T02:52:42;16.60;99.90
29777;DHT22;16677;52.224;7.484;2022-08-19T02:55:09;16.60;99.90
29777;DHT22;16677;52.224;7.484;2022-08-19T02:57:36;16.50;99.90
29777;DHT22;16677;52.224;7.484;2022-08-19T03:00:06;16.40;99.90
29777;DHT22;16677;52.224;7.484;2022-08-19T03:02:34;16.30;99.90
29777;DHT22;16677;52.224;7.484;2022-08-19T03:05:03;16.40;99.90
29777;DHT22;16677;52.224;7.484;2022-08-19T03:07:30;16.30;99.90
29777;DHT22;16677;52.224;7.484;2022-08-19T03:09:57;16.20;99.90
29777;DHT22;16677;52.224;7.484;2022-08-19T03:12:24;16.10;99.90
29777;DHT22;16677;52.224;7.484;2022-08-19T03:14:51;16.10;99.90
29777;DHT22;16677;52.224;7.484;2022-08-19T03:17:19;16.00;99.90
29777;DHT22;16677;52.224;7.484;2022-08-19T03:19:46;16.00;99.90
29777;DHT22;16677;52.224;7.484;2022-08-19T03:22:13;16.00;99.90
29777;DHT22;16677;52.224;7.484;2022-08-19T03:24:41;16.00;99.90
29777;DHT22;16677;52.224;7.484;2022-08-19T03:27:07;16.00;99.90
29777;DHT22;16677;52.224;7.484;2022-08-19T03:29:37;15.90;99.90
29777;DHT22;16677;52.224;7.484;2022-08-19T03:32:10;16.00;99.90
29777;DHT22;16677;52.224;7.484;2022-08-19T03:34:57;15.90;99.90
29777;DHT22;16677;52.224;7.484;2022-08-19T03:37:25;15.80;99.90
29777;DHT22;16677;52.224;7.484;2022-08-19T03:39:52;15.80;99.90
29777;DHT22;16677;52.224;7.484;2022-08-19T03:42:19;15.80;99.90
29777;DHT22;16677;52.224;7.484;2022-08-19T03:47:42;15.90;99.90
29777;DHT22;16677;52.224;7.484;2022-08-19T03:50:09;15.90;99.90
29777;DHT22;16677;52.224;7.484;2022-08-19T03:52:36;16.00;99.90
29777;DHT22;16677;52.224;7.484;2022-08-19T03:55:04;16.10;99.90
29777;DHT22;16677;52.224;7.484;2022-08-19T03:57:33;16.10;99.90
29777;DHT22;16677;52.224;7.484;2022-08-19T04:00:03;16.00;99.90
29777;DHT22;16677;52.224;7.484;2022-08-19T04:02:41;15.90;99.90
29777;DHT22;16677;52.224;7.484;2022-08-19T04:05:25;15.80;99.90
29777;DHT22;16677;52.224;7.484;2022-08-19T04:07:55;15.80;99.90
29777;DHT22;16677;52.224;7.484;2022-08-19T04:10:27;15.90;99.90
29777;DHT22;16677;52.224;7.484;2022-08-19T04:12:55;16.00;99.90
29777;DHT22;16677;52.224;7.484;2022-08-19T04:15:22;15.90;99.90
29777;DHT22;16677;52.224;7.484;2022-08-19T04:17:51;16.00;99.90
29777;DHT22;16677;52.224;7.484;2022-08-19T04:20:21;16.00;99.90
29777;DHT22;16677;52.224;7.484;2022-08-19T04:22:49;15.90;99.90
29777;DHT22;16677;52.224;7.484;2022-08-19T04:25:16;16.00;99.90
29777;DHT22;16677;52.224;7.484;2022-08-19T04:27:43;16.00;99.90
29777;DHT22;16677;52.224;7.484;2022-08-19T04:30:14;16.00;99.90
29777;DHT22;16677;52.224;7.484;2022-08-19T04:32:42;16.00;99.90
29777;DHT22;16677;52.224;7.484;2022-08-19T04:35:10;16.00;99.90
29777;DHT22;16677;52.224;7.484;2022-08-19T04:37:45;16.00;99.90
29777;DHT22;16677;52.224;7.484;2022-08-19T04:40:13;16.00;99.90
29777;DHT22;16677;52.224;7.484;2022-08-19T04:42:58;16.00;99.90
29777;DHT22;16677;52.224;7.484;2022-08-19T04:45:26;16.10;99.90
29777;DHT22;16677;52.224;7.484;2022-08-19T04:48:02;16.10;99.90
29777;DHT22;16677;52.224;7.484;2022-08-19T04:50:49;16.10;99.90
29777;DHT22;16677;52.224;7.484;2022-08-19T04:58:47;16.10;99.90
29777;DHT22;16677;52.224;7.484;2022-08-19T05:01:27;16.30;99.90
29777;DHT22;16677;52.224;7.484;2022-08-19T05:03:57;16.40;99.90
29777;DHT22;16677;52.224;7.484;2022-08-19T05:06:25;16.50;99.90
29777;DHT22;16677;52.224;7.484;2022-08-19T05:08:52;16.50;99.90
29777;DHT22;16677;52.224;7.484;2022-08-19T05:11:26;16.30;99.90
29777;DHT22;16677;52.224;7.484;2022-08-19T05:13:55;16.50;99.90
29777;DHT22;16677;52.224;7.484;2022-08-19T05:16:24;16.60;99.90
29777;DHT22;16677;52.224;7.484;2022-08-19T05:18:52;16.70;99.90
29777;DHT22;16677;52.224;7.484;2022-08-19T05:21:40;16.50;99.90
29777;DHT22;16677;52.224;7.484;2022-08-19T05:24:40;16.90;99.90
29777;DHT22;16677;52.224;7.484;2022-08-19T05:27:27;17.10;99.90
29777;DHT22;16677;52.224;7.484;2022-08-19T05:29:54;17.20;99.90
29777;DHT22;16677;52.224;7.484;2022-08-19T05:32:36;17.50;99.90
29777;DHT22;16677;52.224;7.484;2022-08-19T05:35:04;17.40;99.90
29777;DHT22;16677;52.224;7.484;2022-08-19T05:37:31;17.40;99.90
29777;DHT22;16677;52.224;7.484;2022-08-19T05:39:59;17.30;99.90
29777;DHT22;16677;52.224;7.484;2022-08-19T05:42:27;17.40;99.90
29777;DHT22;16677;52.224;7.484;2022-08-19T05:44:54;17.50;99.90
29777;DHT22;16677;52.224;7.484;2022-08-19T05:47:23;17.80;99.90
29777;DHT22;16677;52.224;7.484;2022-08-19T05:49:51;17.70;99.90
29777;DHT22;16677;52.224;7.484;2022-08-19T05:52:19;18.20;99.90
29777;DHT22;16677;52.224;7.484;2022-08-19T05:55:01;18.60;99.90
29777;DHT22;16677;52.224;7.484;2022-08-19T05:57:42;19.10;99.90
29777;DHT22;16677;52.224;7.484;2022-08-19T06:00:10;19.50;85.40
29777;DHT22;16677;52.224;7.484;2022-08-19T06:02:38;19.40;99.90
29777;DHT22;16677;52.224;7.484;2022-08-19T06:05:07;19.70;95.50
29777;DHT22;16677;52.224;7.484;2022-08-19T06:07:37;20.20;67.30
29777;DHT22;16677;52.224;7.484;2022-08-19T06:10:07;20.10;71.50
29777;DHT22;16677;52.224;7.484;2022-08-19T06:12:35;20.50;60.00
29777;DHT22;16677;52.224;7.484;2022-08-19T06:15:08;20.90;58.40
29777;DHT22;16677;52.224;7.484;2022-08-19T06:17:36;21.20;38.00
29777;DHT22;16677;52.224;7.484;2022-08-19T06:20:09;21.20;40.50
29777;DHT22;16677;52.224;7.484;2022-08-19T06:22:46;21.60;16.80
29777;DHT22;16677;52.224;7.484;2022-08-19T06:25:27;22.10;2.60
29777;DHT22;16677;52.224;7.484;2022-08-19T06:27:56;22.00;8.20
29777;DHT22;16677;52.224;7.484;2022-08-19T06:30:41;21.80;11.90
29777;DHT22;16677;52.224;7.484;2022-08-19T06:33:08;21.10;36.90
29777;DHT22;16677;52.224;7.484;2022-08-19T06:35:39;20.50;89.10
29777;DHT22;16677;52.224;7.484;2022-08-19T06:38:07;20.10;99.90
29777;DHT22;16677;52.224;7.484;2022-08-19T06:40:36;20.50;91.80
29777;DHT22;16677;52.224;7.484;2022-08-19T06:43:05;21.20;53.00
29777;DHT22;16677;52.224;7.484;2022-08-19T06:45:37;21.80;39.20
29777;DHT22;16677;52.224;7.484;2022-08-19T06:48:05;22.50;1.00
29777;DHT22;16677;52.224;7.484;2022-08-19T06:50:37;22.60;1.00
29777;DHT22;16677;52.224;7.484;2022-08-19T06:53:20;22.50;1.00
29777;DHT22;16677;52.224;7.484;2022-08-19T06:55:49;22.20;11.50
29777;DHT22;16677;52.224;7.484;2022-08-19T06:58:31;22.50;8.40
29777;DHT22;16677;52.224;7.484;2022-08-19T07:01:03;21.70;40.80
29777;DHT22;16677;52.224;7.484;2022-08-19T07:03:41;21.60;42.00
29777;DHT22;16677;52.224;7.484;2022-08-19T07:06:16;21.60;45.70
29777;DHT22;16677;52.224;7.484;2022-08-19T07:09:05;21.10;61.90
29777;DHT22;16677;52.224;7.484;2022-08-19T07:11:38;21.70;47.60
29777;DHT22;16677;52.224;7.484;2022-08-19T07:14:33;21.20;49.90
29777;DHT22;16677;52.224;7.484;2022-08-19T07:17:06;21.20;63.50
29777;DHT22;16677;52.224;7.484;2022-08-19T07:19:36;20.90;72.00
29777;DHT22;16677;52.224;7.484;2022-08-19T07:22:06;21.30;66.60
29777;DHT22;16677;52.224;7.484;2022-08-19T07:24:47;21.90;32.30
29777;DHT22;16677;52.224;7.484;2022-08-19T07:27:28;22.30;16.00
29777;DHT22;16677;52.224;7.484;2022-08-19T07:30:10;22.70;7.00
29777;DHT22;16677;52.224;7.484;2022-08-19T07:32:57;22.90;1.00
29777;DHT22;16677;52.224;7.484;2022-08-19T07:35:41;22.50;7.80
29777;DHT22;16677;52.224;7.484;2022-08-19T07:38:21;21.70;31.10
29777;DHT22;16677;52.224;7.484;2022-08-19T07:40:49;21.80;45.60
29777;DHT22;16677;52.224;7.484;2022-08-19T07:43:20;22.00;18.70
29777;DHT22;16677;52.224;7.484;2022-08-19T07:46:04;22.30;17.80
29777;DHT22;16677;52.224;7.484;2022-08-19T07:48:47;22.80;3.80
29777;DHT22;16677;52.224;7.484;2022-08-19T07:51:28;23.00;1.00
29777;DHT22;16677;52.224;7.484;2022-08-19T07:54:03;22.60;8.70
29777;DHT22;16677;52.224;7.484;2022-08-19T07:56:45;22.80;1.20
29777;DHT22;16677;52.224;7.484;2022-08-19T07:59:21;22.80;1.00
29777;DHT22;16677;52.224;7.484;2022-08-19T08:02:00;23.30;1.00
29777;DHT22;16677;52.224;7.484;2022-08-19T08:04:55;23.80;1.00
29777;DHT22;16677;52.224;7.484;2022-08-19T08:07:54;22.80;1.00
29777;DHT22;16677;52.224;7.484;2022-08-19T08:10:42;23.00;1.00
29777;DHT22;16677;52.224;7.484;2022-08-19T08:13:18;22.90;1.00
29777;DHT22;16677;52.224;7.484;2022-08-19T08:16:06;22.90;1.00
29777;DHT22;16677;52.224;7.484;2022-08-19T08:19:21;23.00;1.00
29777;DHT22;16677;52.224;7.484;2022-08-19T08:22:03;22.60;1.00
29777;DHT22;16677;52.224;7.484;2022-08-19T08:24:38;22.80;1.00
29777;DHT22;16677;52.224;7.484;2022-08-19T08:27:06;23.30;1.00
29777;DHT22;16677;52.224;7.484;2022-08-19T08:29:37;23.60;1.00
29777;DHT22;16677;52.224;7.484;2022-08-19T08:32:04;23.10;1.00
29777;DHT22;16677;52.224;7.484;2022-08-19T08:34:41;22.90;1.00
29777;DHT22;16677;52.224;7.484;2022-08-19T08:37:08;23.30;1.00
29777;DHT22;16677;52.224;7.484;2022-08-19T08:39:48;23.10;1.00
29777;DHT22;16677;52.224;7.484;2022-08-19T09:05:13;25.20;1.00
29777;DHT22;16677;52.224;7.484;2022-08-19T09:08:38;24.90;1.00
29777;DHT22;16677;52.224;7.484;2022-08-19T09:15:47;24.80;1.00
29777;DHT22;16677;52.224;7.484;2022-08-19T09:18:49;24.20;1.00
29777;DHT22;16677;52.224;7.484;2022-08-19T09:21:38;24.40;1.00
29777;DHT22;16677;52.224;7.484;2022-08-19T09:24:24;24.10;1.00
29777;DHT22;16677;52.224;7.484;2022-08-19T10:04:57;25.80;1.00
29777;DHT22;16677;52.224;7.484;2022-08-19T10:07:52;24.90;1.00
29777;DHT22;16677;52.224;7.484;2022-08-19T10:10:40;25.60;1.00
29777;DHT22;16677;52.224;7.484;2022-08-19T10:13:16;26.10;1.00
29777;DHT22;16677;52.224;7.484;2022-08-19T10:16:10;26.10;1.00
29777;DHT22;16677;52.224;7.484;2022-08-19T10:18:57;25.30;1.00
29777;DHT22;16677;52.224;7.484;2022-08-19T10:21:31;25.20;1.00
29777;DHT22;16677;52.224;7.484;2022-08-19T10:24:06;25.70;1.00
29777;DHT22;16677;52.224;7.484;2022-08-19T10:26:50;26.40;1.00
29777;DHT22;16677;52.224;7.484;2022-08-19T10:29:24;26.20;1.00
29777;DHT22;16677;52.224;7.484;2022-08-19T10:32:07;25.20;1.00
29777;DHT22;16677;52.224;7.484;2022-08-19T10:34:39;25.30;1.00
29777;DHT22;16677;52.224;7.484;2022-08-19T10:37:40;25.50;1.00
29777;DHT22;16677;52.224;7.484;2022-08-19T10:40:28;26.00;1.00
29777;DHT22;16677;52.224;7.484;2022-08-19T11:21:05;26.50;1.00
29777;DHT22;16677;52.224;7.484;2022-08-19T11:24:09;25.80;1.00
29777;DHT22;16677;52.224;7.484;2022-08-19T11:26:38;25.80;1.00
29777;DHT22;16677;52.224;7.484;2022-08-19T11:29:08;26.40;1.00
29777;DHT22;16677;52.224;7.484;2022-08-19T12:14:43;27.00;1.00
29777;DHT22;16677;52.224;7.484;2022-08-19T12:17:16;26.30;1.00
29777;DHT22;16677;52.224;7.484;2022-08-19T12:19:48;26.10;1.00
29777;DHT22;16677;52.224;7.484;2022-08-19T12:22:17;26.40;1.00
29777;DHT22;16677;52.224;7.484;2022-08-19T12:24:45;26.80;1.00
29777;DHT22;16677;52.224;7.484;2022-08-19T12:27:13;26.60;1.00
29777;DHT22;16677;52.224;7.484;2022-08-19T12:29:58;26.50;1.00
29777;DHT22;16677;52.224;7.484;2022-08-19T12:32:36;26.40;1.00
29777;DHT22;16677;52.224;7.484;2022-08-19T12:35:07;26.50;1.00
29777;DHT22;16677;52.224;7.484;2022-08-19T12:37:36;27.10;1.00
29777;DHT22;16677;52.224;7.484;2022-08-19T12:40:03;27.50;1.00
29777;DHT22;16677;52.224;7.484;2022-08-19T12:42:40;27.40;1.00
29777;DHT22;16677;52.224;7.484;2022-08-19T12:45:21;27.10;1.00
29777;DHT22;16677;52.224;7.484;2022-08-19T12:48:22;26.60;1.00
29777;DHT22;16677;52.224;7.484;2022-08-19T12:51:01;26.10;1.00
29777;DHT22;16677;52.224;7.484;2022-08-19T12:53:36;26.30;1.00
29777;DHT22;16677;52.224;7.484;2022-08-19T12:56:10;26.40;1.00
29777;DHT22;16677;52.224;7.484;2022-08-19T12:59:08;26.00;1.00
29777;DHT22;16677;52.224;7.484;2022-08-19T13:01:47;26.00;1.00
29777;DHT22;16677;52.224;7.484;2022-08-19T13:23:59;25.80;1.00
29777;DHT22;16677;52.224;7.484;2022-08-19T13:26:42;25.80;1.00
29777;DHT22;16677;52.224;7.484;2022-08-19T13:29:12;25.90;1.00
29777;DHT22;16677;52.224;7.484;2022-08-19T13:32:23;26.30;1.00
29777;DHT22;16677;52.224;7.484;2022-08-19T13:35:23;26.00;1.00
29777;DHT22;16677;52.224;7.484;2022-08-19T13:38:09;26.00;1.00
29777;DHT22;16677;52.224;7.484;2022-08-19T13:40:55;26.20;1.00
29777;DHT22;16677;52.224;7.484;2022-08-19T13:43:42;26.50;1.00
29777;DHT22;16677;52.224;7.484;2022-08-19T13:46:30;26.10;1.00
29777;DHT22;16677;52.224;7.484;2022-08-19T13:52:48;26.50;1.00
29777;DHT22;16677;52.224;7.484;2022-08-19T13:55:59;26.40;1.00
29777;DHT22;16677;52.224;7.484;2022-08-19T13:58:32;26.20;1.00
29777;DHT22;16677;52.224;7.484;2022-08-19T14:01:21;26.30;1.00
29777;DHT22;16677;52.224;7.484;2022-08-19T14:04:11;26.50;1.00
29777;DHT22;16677;52.224;7.484;2022-08-19T14:07:09;26.50;1.00
29777;DHT22;16677;52.224;7.484;2022-08-19T14:14:09;26.80;1.00
29777;DHT22;16677;52.224;7.484;2022-08-19T14:16:51;26.80;1.00
29777;DHT22;16677;52.224;7.484;2022-08-19T14:19:20;27.00;1.00
29777;DHT22;16677;52.224;7.484;2022-08-19T14:22:09;27.00;1.00
29777;DHT22;16677;52.224;7.484;2022-08-19T14:25:02;27.30;1.00
29777;DHT22;16677;52.224;7.484;2022-08-19T14:27:49;26.80;1.00
29777;DHT22;16677;52.224;7.484;2022-08-19T14:30:27;26.30;1.00
29777;DHT22;16677;52.224;7.484;2022-08-19T14:33:13;26.40;1.00
29777;DHT22;16677;52.224;7.484;2022-08-19T14:36:44;26.50;1.00
29777;DHT22;16677;52.224;7.484;2022-08-19T14:39:16;26.50;1.00
29777;DHT22;16677;52.224;7.484;2022-08-19T14:41:43;26.40;1.00
29777;DHT22;16677;52.224;7.484;2022-08-19T14:44:18;26.70;1.00
29777;DHT22;16677;52.224;7.484;2022-08-19T14:46:48;27.00;1.00
29777;DHT22;16677;52.224;7.484;2022-08-19T14:49:22;27.00;1.00
29777;DHT22;16677;52.224;7.484;2022-08-19T14:56:23;26.70;1.00
29777;DHT22;16677;52.224;7.484;2022-08-19T14:59:19;26.90;1.00
29777;DHT22;16677;52.224;7.484;2022-08-19T15:01:49;26.60;1.00
29777;DHT22;16677;52.224;7.484;2022-08-19T15:05:11;26.30;1.00
29777;DHT22;16677;52.224;7.484;2022-08-19T15:07:44;26.40;1.00
29777;DHT22;16677;52.224;7.484;2022-08-19T15:13:51;26.40;1.00
29777;DHT22;16677;52.224;7.484;2022-08-19T15:25:10;26.60;1.00
29777;DHT22;16677;52.224;7.484;2022-08-19T15:31:57;26.50;1.00
29777;DHT22;16677;52.224;7.484;2022-08-19T15:34:50;26.70;1.00
29777;DHT22;16677;52.224;7.484;2022-08-19T15:37:33;26.50;1.00
29777;DHT22;16677;52.224;7.484;2022-08-19T15:40:41;26.40;1.00
29777;DHT22;16677;52.224;7.484;2022-08-19T15:43:22;26.40;1.00
29777;DHT22;16677;52.224;7.484;2022-08-19T15:45:52;26.40;1.00
29777;DHT22;16677;52.224;7.484;2022-08-19T15:48:56;26.40;1.00
29777;DHT22;16677;52.224;7.484;2022-08-19T16:13:33;26.00;1.00
29777;DHT22;16677;52.224;7.484;2022-08-19T17:36:31;25.50;1.00
29777;DHT22;16677;52.224;7.484;2022-08-19T17:40:34;25.50;1.00
29777;DHT22;16677;52.224;7.484;2022-08-19T17:44:39;25.50;1.00
29777;DHT22;16677;52.224;7.484;2022-08-19T17:48:28;25.30;1.00
29777;DHT22;16677;52.224;7.484;2022-08-19T17:55:54;25.40;1.00
29777;DHT22;16677;52.224;7.484;2022-08-19T17:59:50;25.30;1.00
29777;DHT22;16677;52.224;7.484;2022-08-19T18:11:09;25.30;1.00
29777;DHT22;16677;52.224;7.484;2022-08-19T18:26:17;24.20;1.00
29777;DHT22;16677;52.224;7.484;2022-08-19T18:37:02;24.00;1.00
29777;DHT22;16677;52.224;7.484;2022-08-19T18:40:28;23.90;1.00
29777;DHT22;16677;52.224;7.484;2022-08-19T18:59:41;23.80;1.00
29777;DHT22;16677;52.224;7.484;2022-08-19T21:43:50;21.30;60.30
29777;DHT22;16677;52.224;7.484;2022-08-19T21:47:01;21.20;66.70
29777;DHT22;16677;52.224;7.484;2022-08-19T21:49:34;21.30;66.70
29777;DHT22;16677;52.224;7.484;2022-08-19T21:52:02;21.20;69.00
29777;DHT22;16677;52.224;7.484;2022-08-19T21:54:31;21.00;83.90
29777;DHT22;16677;52.224;7.484;2022-08-19T21:57:05;21.00;82.50
29777;DHT22;16677;52.224;7.484;2022-08-19T21:59:37;21.00;83.80
29777;DHT22;16677;52.224;7.484;2022-08-19T22:02:11;21.10;76.40
29777;DHT22;16677;52.224;7.484;2022-08-19T22:04:47;21.10;81.10
29777;DHT22;16677;52.224;7.484;2022-08-19T22:07:14;21.20;76.20
29777;DHT22;16677;52.224;7.484;2022-08-19T22:09:43;21.10;83.00
29777;DHT22;16677;52.224;7.484;2022-08-19T22:12:19;21.20;79.10
29777;DHT22;16677;52.224;7.484;2022-08-19T22:14:50;21.10;83.00
29777;DHT22;16677;52.224;7.484;2022-08-19T22:17:18;21.00;87.20
29777;DHT22;16677;52.224;7.484;2022-08-19T22:19:45;21.00;90.40
29777;DHT22;16677;52.224;7.484;2022-08-19T22:22:28;21.00;90.30
29777;DHT22;16677;52.224;7.484;2022-08-19T22:25:02;21.10;87.50
29777;DHT22;16677;52.224;7.484;2022-08-19T22:27:29;21.00;89.60
29777;DHT22;16677;52.224;7.484;2022-08-19T22:29:57;20.90;92.40
29777;DHT22;16677;52.224;7.484;2022-08-19T22:32:24;20.80;96.50
29777;DHT22;16677;52.224;7.484;2022-08-19T22:34:55;21.00;94.60
29777;DHT22;16677;52.224;7.484;2022-08-19T22:37:23;21.10;92.50
29777;DHT22;16677;52.224;7.484;2022-08-19T22:39:50;21.20;84.90
29777;DHT22;16677;52.224;7.484;2022-08-19T22:42:18;21.10;86.10
29777;DHT22;16677;52.224;7.484;2022-08-19T22:44:45;21.10;91.10
29777;DHT22;16677;52.224;7.484;2022-08-19T22:47:12;21.00;91.10
29777;DHT22;16677;52.224;7.484;2022-08-19T22:49:39;21.00;92.60
29777;DHT22;16677;52.224;7.484;2022-08-19T22:52:06;21.00;91.00
29777;DHT22;16677;52.224;7.484;2022-08-19T22:54:51;21.00;92.50
29777;DHT22;16677;52.224;7.484;2022-08-19T22:57:20;20.90;94.30
29777;DHT22;16677;52.224;7.484;2022-08-19T22:59:48;20.80;97.30
29777;DHT22;16677;52.224;7.484;2022-08-19T23:02:21;20.80;99.90
29777;DHT22;16677;52.224;7.484;2022-08-19T23:04:49;20.80;99.90
29777;DHT22;16677;52.224;7.484;2022-08-19T23:07:17;20.50;99.90
29777;DHT22;16677;52.224;7.484;2022-08-19T23:09:49;20.10;99.90
29777;DHT22;16677;52.224;7.484;2022-08-19T23:12:28;20.10;99.90
29777;DHT22;16677;52.224;7.484;2022-08-19T23:15:10;20.20;99.90
29777;DHT22;16677;52.224;7.484;2022-08-19T23:17:38;20.30;99.90
29777;DHT22;16677;52.224;7.484;2022-08-19T23:20:12;20.40;99.90
29777;DHT22;16677;52.224;7.484;2022-08-19T23:22:44;20.40;99.90
29777;DHT22;16677;52.224;7.484;2022-08-19T23:25:19;20.40;99.90
29777;DHT22;16677;52.224;7.484;2022-08-19T23:27:47;20.40;99.90
29777;DHT22;16677;52.224;7.484;2022-08-19T23:30:48;20.40;99.90
29777;DHT22;16677;52.224;7.484;2022-08-19T23:33:27;20.40;99.90
29777;DHT22;16677;52.224;7.484;2022-08-19T23:36:16;20.30;99.90
29777;DHT22;16677;52.224;7.484;2022-08-19T23:38:45;20.30;99.90
29777;DHT22;16677;52.224;7.484;2022-08-19T23:41:14;20.00;99.90
29777;DHT22;16677;52.224;7.484;2022-08-19T23:43:42;19.90;99.90
29777;DHT22;16677;52.224;7.484;2022-08-19T23:46:12;19.90;99.90
29777;DHT22;16677;52.224;7.484;2022-08-19T23:48:39;19.90;99.90
29777;DHT22;16677;52.224;7.484;2022-08-19T23:51:10;19.90;99.90
29777;DHT22;16677;52.224;7.484;2022-08-19T23:53:39;20.10;99.90
29777;DHT22;16677;52.224;7.484;2022-08-19T23:56:08;20.10;99.90
29777;DHT22;16677;52.224;7.484;2022-08-19T23:58:36;20.00;99.90
